createdAt,value
2022-10-19T00:00:28.280Z,13
2022-10-19T00:03:28.287Z,13
2022-10-19T00:04:28.283Z,15
2022-10-19T00:05:28.284Z,11
2022-10-19T00:07:28.347Z,12
2022-10-19T00:09:28.282Z,11
2022-10-19T00:11:28.288Z,13
2022-10-19T00:12:28.282Z,13
2022-10-19T00:13:28.289Z,11
2022-10-19T00:14:28.278Z,12
2022-10-19T00:16:28.287Z,0
2022-10-19T00:17:28.336Z,10
2022-10-19T00:20:28.287Z,10
2022-10-19T00:21:28.287Z,10
2022-10-19T00:22:28.290Z,0
2022-10-19T00:24:28.289Z,10
2022-10-19T00:25:28.286Z,10
2022-10-19T00:26:28.284Z,0
2022-10-19T00:27:28.297Z,0
2022-10-19T00:28:28.341Z,0
2022-10-19T00:29:28.284Z,0
2022-10-19T00:30:28.290Z,0
2022-10-19T00:31:28.291Z,0
2022-10-19T00:33:28.284Z,9
2022-10-19T00:34:28.288Z,8
2022-10-19T00:35:28.284Z,0
2022-10-19T00:37:28.287Z,0
2022-10-19T00:38:28.287Z,7
2022-10-19T00:39:28.319Z,0
2022-10-19T00:40:28.291Z,9
2022-10-19T00:42:28.282Z,0
2022-10-19T00:43:28.284Z,9
2022-10-19T00:44:28.289Z,0
2022-10-19T00:45:28.473Z,0
2022-10-19T00:46:28.296Z,0
2022-10-19T00:48:28.286Z,0
2022-10-19T00:49:28.294Z,1
2022-10-19T00:51:28.287Z,0
2022-10-19T00:53:28.296Z,0
2022-10-19T00:54:28.295Z,10
2022-10-19T00:56:28.296Z,9
2022-10-19T00:57:28.299Z,9
2022-10-19T00:58:28.294Z,10
2022-10-19T00:59:28.299Z,9
2022-10-19T01:01:28.372Z,5
2022-10-19T01:02:28.289Z,10
2022-10-19T01:04:28.298Z,10
2022-10-19T01:06:28.295Z,9
2022-10-19T01:07:28.294Z,9
2022-10-19T01:09:28.317Z,7
2022-10-19T01:10:28.318Z,0
2022-10-19T01:11:28.295Z,1
2022-10-19T01:12:28.294Z,6
2022-10-19T01:13:28.303Z,8
2022-10-19T01:15:28.294Z,9
2022-10-19T01:17:28.298Z,8
2022-10-19T01:18:28.292Z,9
2022-10-19T01:20:28.299Z,9
2022-10-19T01:21:28.302Z,10
2022-10-19T01:22:28.307Z,9
2022-10-19T01:23:28.292Z,9
2022-10-19T01:24:28.292Z,10
2022-10-19T01:25:28.300Z,6
2022-10-19T01:26:28.301Z,5
2022-10-19T01:27:28.297Z,0
2022-10-19T01:28:28.362Z,0
2022-10-19T01:30:28.296Z,0
2022-10-19T01:31:28.295Z,10
2022-10-19T01:32:28.304Z,10
2022-10-19T01:33:28.306Z,10
2022-10-19T01:34:28.294Z,10
2022-10-19T01:35:28.293Z,8
2022-10-19T01:38:28.297Z,9
2022-10-19T01:39:28.300Z,9
2022-10-19T01:40:28.293Z,9
2022-10-19T01:41:28.327Z,8
2022-10-19T01:42:28.306Z,9
2022-10-19T01:43:28.303Z,0
2022-10-19T01:44:28.306Z,8
2022-10-19T01:47:28.310Z,0
2022-10-19T01:48:28.302Z,0
2022-10-19T01:50:28.296Z,0
2022-10-19T01:52:28.352Z,0
2022-10-19T01:53:28.299Z,8
2022-10-19T01:54:28.299Z,9
2022-10-19T01:55:28.312Z,9
2022-10-19T01:57:28.305Z,0
2022-10-19T01:59:28.304Z,8
2022-10-19T02:00:28.302Z,10
2022-10-19T02:01:28.300Z,10
2022-10-19T02:02:28.295Z,11
2022-10-19T02:03:28.294Z,12
2022-10-19T02:05:28.304Z,15
2022-10-19T02:06:28.299Z,17
2022-10-19T02:08:28.306Z,15
2022-10-19T02:09:28.302Z,0
2022-10-19T02:10:28.301Z,0
2022-10-19T02:13:28.309Z,17
2022-10-19T02:14:28.303Z,20
2022-10-19T02:15:28.300Z,22
2022-10-19T02:16:28.302Z,23
2022-10-19T02:18:28.311Z,17
2022-10-19T02:19:28.305Z,20
2022-10-19T02:20:28.303Z,0
2022-10-19T02:21:28.307Z,21
2022-10-19T02:22:28.303Z,21
2022-10-19T02:23:28.307Z,0
2022-10-19T02:25:28.301Z,18
2022-10-19T02:26:28.303Z,17
2022-10-19T02:27:28.308Z,19
2022-10-19T02:28:28.300Z,19
2022-10-19T02:31:28.309Z,12
2022-10-19T02:32:28.313Z,0
2022-10-19T02:35:28.300Z,25
2022-10-19T02:36:28.302Z,22
2022-10-19T02:37:28.390Z,19
2022-10-19T02:39:28.313Z,28
2022-10-19T02:40:28.305Z,21
2022-10-19T02:41:28.306Z,23
2022-10-19T02:42:28.305Z,22
2022-10-19T02:43:28.414Z,22
2022-10-19T02:44:28.310Z,26
2022-10-19T02:45:28.306Z,22
2022-10-19T02:46:28.366Z,26
2022-10-19T02:47:28.312Z,27
2022-10-19T02:48:28.305Z,23
2022-10-19T02:50:28.305Z,20
2022-10-19T02:51:28.322Z,22
2022-10-19T02:52:28.315Z,22
2022-10-19T02:53:28.317Z,22
2022-10-19T02:55:28.363Z,22
2022-10-19T02:57:28.312Z,31
2022-10-19T02:58:28.303Z,29
2022-10-19T02:59:28.309Z,29
2022-10-19T03:00:28.317Z,28
2022-10-19T03:01:28.311Z,29
2022-10-19T03:02:28.315Z,31
2022-10-19T03:03:28.314Z,36
2022-10-19T03:04:28.331Z,33
2022-10-19T03:05:28.314Z,35
2022-10-19T03:06:28.314Z,34
2022-10-19T03:07:28.410Z,36
2022-10-19T03:08:28.314Z,37
2022-10-19T03:11:28.318Z,35
2022-10-19T03:12:28.311Z,32
2022-10-19T03:13:28.312Z,36
2022-10-19T03:14:28.335Z,35
2022-10-19T03:16:28.311Z,38
2022-10-19T03:17:28.316Z,39
2022-10-19T03:18:28.312Z,39
2022-10-19T03:19:28.312Z,38
2022-10-19T03:20:28.313Z,35
2022-10-19T03:21:28.323Z,31
2022-10-19T03:22:28.316Z,35
2022-10-19T03:23:28.328Z,30
2022-10-19T03:24:28.311Z,38
2022-10-19T03:26:28.316Z,39
2022-10-19T03:27:28.312Z,41
2022-10-19T03:28:28.356Z,38
2022-10-19T03:29:28.321Z,40
2022-10-19T03:31:28.307Z,41
2022-10-19T03:32:28.343Z,38
2022-10-19T03:33:28.324Z,36
2022-10-19T03:34:28.316Z,41
2022-10-19T03:35:28.320Z,33
2022-10-19T03:37:28.316Z,36
2022-10-19T03:38:28.319Z,38
2022-10-19T03:39:28.319Z,34
2022-10-19T03:40:28.317Z,35
2022-10-19T03:42:28.314Z,40
2022-10-19T03:43:28.325Z,38
2022-10-19T03:44:28.318Z,37
2022-10-19T03:45:28.343Z,37
2022-10-19T03:47:28.316Z,34
2022-10-19T03:48:28.322Z,32
2022-10-19T03:49:28.327Z,30
2022-10-19T03:50:28.326Z,28
2022-10-19T03:52:28.317Z,24
2022-10-19T03:53:28.320Z,23
2022-10-19T03:54:28.321Z,22
2022-10-19T03:56:28.706Z,0
2022-10-19T03:57:28.314Z,0
2022-10-19T03:58:28.319Z,0
2022-10-19T03:59:28.315Z,17
2022-10-19T04:00:28.326Z,6
2022-10-19T04:01:28.406Z,16
2022-10-19T04:03:28.364Z,16
2022-10-19T04:04:28.335Z,16
2022-10-19T04:05:28.314Z,15
2022-10-19T04:06:28.328Z,16
2022-10-19T04:08:28.325Z,14
2022-10-19T04:09:28.318Z,15
2022-10-19T04:10:28.329Z,16
2022-10-19T04:13:28.323Z,13
2022-10-19T04:14:33.118Z,0
2022-10-19T04:15:28.322Z,13
2022-10-19T04:16:28.349Z,0
2022-10-19T04:17:28.319Z,12
2022-10-19T04:18:28.326Z,13
2022-10-19T04:19:28.341Z,0
2022-10-19T04:21:28.322Z,0
2022-10-19T04:22:28.327Z,12
2022-10-19T04:24:28.322Z,9
2022-10-19T04:25:28.344Z,13
2022-10-19T04:26:28.366Z,0
2022-10-19T04:27:28.325Z,0
2022-10-19T04:29:30.115Z,18
2022-10-19T04:30:28.329Z,15
2022-10-19T04:31:28.324Z,0
2022-10-19T04:32:28.320Z,18
2022-10-19T04:35:28.328Z,18
2022-10-19T04:36:28.327Z,1
2022-10-19T04:37:28.328Z,15
2022-10-19T04:38:28.322Z,0
2022-10-19T04:40:28.329Z,14
2022-10-19T04:41:28.327Z,16
2022-10-19T04:42:28.331Z,15
2022-10-19T04:43:28.327Z,16
2022-10-19T04:44:28.322Z,18
2022-10-19T04:45:28.323Z,17
2022-10-19T04:46:28.343Z,0
2022-10-19T04:47:28.376Z,0
2022-10-19T04:48:28.338Z,15
2022-10-19T04:50:28.333Z,0
2022-10-19T04:51:28.327Z,0
2022-10-19T04:53:28.331Z,0
2022-10-19T04:55:28.325Z,0
2022-10-19T04:56:28.322Z,16
2022-10-19T04:57:28.324Z,0
2022-10-19T04:58:28.328Z,0
2022-10-19T05:01:28.334Z,18
2022-10-19T05:02:28.327Z,18
2022-10-19T05:03:28.334Z,15
2022-10-19T05:04:28.388Z,18
2022-10-19T05:07:28.335Z,17
2022-10-19T05:08:28.335Z,17
2022-10-19T05:09:28.362Z,16
2022-10-19T05:11:28.338Z,15
2022-10-19T05:12:28.333Z,16
2022-10-19T05:16:28.324Z,15
2022-10-19T05:17:28.330Z,16
2022-10-19T05:18:28.356Z,17
2022-10-19T05:20:28.333Z,17
2022-10-19T05:22:28.333Z,18
2022-10-19T05:23:28.362Z,18
2022-10-19T05:25:28.336Z,18
2022-10-19T05:26:28.330Z,19
2022-10-19T05:28:28.417Z,20
2022-10-19T05:29:28.327Z,19
2022-10-19T05:30:28.331Z,20
2022-10-19T05:31:28.363Z,20
2022-10-19T05:33:28.332Z,20
2022-10-19T05:34:28.343Z,20
2022-10-19T05:35:28.330Z,20
2022-10-19T05:37:28.339Z,20
2022-10-19T05:38:28.335Z,20
2022-10-19T05:39:28.336Z,21
2022-10-19T05:40:28.337Z,20
2022-10-19T05:41:28.332Z,21
2022-10-19T05:42:28.340Z,22
2022-10-19T05:43:28.341Z,21
2022-10-19T05:44:28.446Z,21
2022-10-19T05:46:28.332Z,21
2022-10-19T05:47:30.949Z,21
2022-10-19T05:48:28.349Z,18
2022-10-19T05:49:28.369Z,19
2022-10-19T05:50:28.336Z,18
2022-10-19T05:51:28.336Z,18
2022-10-19T05:54:28.696Z,18
2022-10-19T05:55:28.345Z,19
2022-10-19T05:57:28.342Z,17
2022-10-19T05:58:28.347Z,18
2022-10-19T05:59:28.339Z,20
2022-10-19T06:00:28.449Z,20
2022-10-19T06:01:28.392Z,18
2022-10-19T06:02:28.342Z,21
2022-10-19T06:03:28.336Z,19
2022-10-19T06:04:28.337Z,20
2022-10-19T06:05:28.334Z,20
2022-10-19T06:08:28.338Z,21
2022-10-19T06:09:28.331Z,21
2022-10-19T06:10:28.446Z,20
2022-10-19T06:11:28.343Z,19
2022-10-19T06:12:28.346Z,12
2022-10-19T06:15:28.340Z,15
2022-10-19T06:17:28.340Z,12
2022-10-19T06:18:28.340Z,14
2022-10-19T06:19:28.357Z,11
2022-10-19T06:20:28.427Z,11
2022-10-19T06:21:28.349Z,10
2022-10-19T06:22:28.336Z,11
2022-10-19T06:23:28.364Z,10
2022-10-19T06:24:28.345Z,11
2022-10-19T06:25:28.347Z,10
2022-10-19T06:29:28.340Z,12
2022-10-19T06:30:28.486Z,13
2022-10-19T06:32:28.353Z,13
2022-10-19T06:33:28.341Z,15
2022-10-19T06:34:28.444Z,15
2022-10-19T06:36:28.337Z,18
2022-10-19T06:37:28.337Z,19
2022-10-19T06:39:28.340Z,15
2022-10-19T06:40:28.506Z,17
2022-10-19T06:41:28.348Z,19
2022-10-19T06:42:28.344Z,22
2022-10-19T06:43:28.337Z,22
2022-10-19T06:44:28.350Z,24
2022-10-19T06:45:32.221Z,26
2022-10-19T06:47:28.393Z,0
2022-10-19T06:48:28.346Z,13
2022-10-19T06:51:28.363Z,12
2022-10-19T06:52:28.342Z,11
2022-10-19T06:53:28.349Z,12
2022-10-19T06:55:28.342Z,14
2022-10-19T06:56:28.341Z,14
2022-10-19T06:57:28.344Z,15
2022-10-19T06:58:28.339Z,17
2022-10-19T07:00:28.346Z,16
2022-10-19T07:01:28.494Z,17
2022-10-19T07:02:28.342Z,21
2022-10-19T07:03:28.341Z,24
2022-10-19T07:04:28.342Z,21
2022-10-19T07:05:28.336Z,20
2022-10-19T07:06:28.352Z,20
2022-10-19T07:08:28.344Z,21
2022-10-19T07:09:28.340Z,20
2022-10-19T07:10:28.346Z,21
2022-10-19T07:11:28.343Z,19
2022-10-19T07:12:28.338Z,19
2022-10-19T07:14:28.340Z,19
2022-10-19T07:16:28.342Z,19
2022-10-19T07:17:28.343Z,17
2022-10-19T07:18:28.344Z,18
2022-10-19T07:19:28.345Z,18
2022-10-19T07:21:28.347Z,16
2022-10-19T07:22:28.514Z,17
2022-10-19T07:23:28.342Z,18
2022-10-19T07:24:28.362Z,17
2022-10-19T07:26:28.339Z,17
2022-10-19T07:27:28.351Z,17
2022-10-19T07:29:28.342Z,18
2022-10-19T07:30:28.347Z,19
2022-10-19T07:31:28.352Z,17
2022-10-19T07:32:28.338Z,19
2022-10-19T07:33:28.343Z,19
2022-10-19T07:34:29.128Z,18
2022-10-19T07:35:28.340Z,19
2022-10-19T07:36:28.343Z,19
2022-10-19T07:37:28.350Z,21
2022-10-19T07:38:28.350Z,21
2022-10-19T07:40:28.352Z,21
2022-10-19T07:41:28.351Z,24
2022-10-19T07:42:28.350Z,22
2022-10-19T07:43:28.346Z,23
2022-10-19T07:44:28.408Z,23
2022-10-19T07:45:28.350Z,22
2022-10-19T07:46:28.348Z,22
2022-10-19T07:48:28.343Z,19
2022-10-19T07:49:28.353Z,18
2022-10-19T07:50:28.348Z,17
2022-10-19T07:52:30.758Z,18
2022-10-19T07:53:28.376Z,18
2022-10-19T07:56:28.373Z,17
2022-10-19T07:57:28.359Z,16
2022-10-19T07:58:28.345Z,16
2022-10-19T07:59:28.347Z,15
2022-10-19T08:01:28.363Z,18
2022-10-19T08:02:35.006Z,16
2022-10-19T08:04:31.190Z,18
2022-10-19T08:04:59.401Z,20
2022-10-19T08:05:28.434Z,20
2022-10-19T08:06:28.349Z,20
2022-10-19T08:07:28.349Z,19
2022-10-19T08:09:51.455Z,17
2022-10-19T08:10:28.347Z,15
2022-10-19T08:11:28.349Z,16
2022-10-19T08:12:28.353Z,14
2022-10-19T08:13:28.352Z,14
2022-10-19T08:14:28.351Z,15
2022-10-19T08:15:28.351Z,18
2022-10-19T08:16:28.489Z,18
2022-10-19T08:19:28.342Z,0
2022-10-19T08:22:28.359Z,11
2022-10-19T08:24:28.372Z,0
2022-10-19T08:25:28.351Z,0
2022-10-19T08:26:28.344Z,0
2022-10-19T08:27:28.402Z,0
2022-10-19T08:28:28.356Z,0
2022-10-19T08:29:30.710Z,0
2022-10-19T08:30:28.351Z,0
2022-10-19T08:32:28.344Z,0
2022-10-19T08:33:28.348Z,0
2022-10-19T08:34:28.342Z,0
2022-10-19T08:35:28.352Z,0
2022-10-19T08:36:28.395Z,0
2022-10-19T08:37:40.649Z,0
2022-10-19T08:38:28.386Z,0
2022-10-19T08:39:28.347Z,0
2022-10-19T08:40:28.358Z,0
2022-10-19T08:41:28.357Z,0
2022-10-19T08:43:28.412Z,0
2022-10-19T08:44:28.379Z,0
2022-10-19T08:45:28.494Z,0
2022-10-19T08:46:28.350Z,0
2022-10-19T08:48:28.357Z,0
2022-10-19T08:51:28.348Z,0
2022-10-19T08:52:30.836Z,0
2022-10-19T08:53:28.360Z,0
2022-10-19T08:54:28.357Z,0
2022-10-19T08:55:28.432Z,0
2022-10-19T08:57:28.352Z,0
2022-10-19T08:58:28.353Z,0
2022-10-19T08:59:28.357Z,0
2022-10-19T09:00:28.389Z,0
2022-10-19T09:01:28.354Z,0
2022-10-19T09:02:28.351Z,0
2022-10-19T09:04:28.353Z,0
2022-10-19T09:05:28.356Z,0
2022-10-19T09:06:28.366Z,0
2022-10-19T09:09:28.359Z,0
2022-10-19T09:12:28.416Z,0
2022-10-19T09:13:36.430Z,0
2022-10-19T09:14:28.358Z,0
2022-10-19T09:15:28.359Z,0
2022-10-19T09:17:28.364Z,0
2022-10-19T09:18:28.367Z,0
2022-10-19T09:19:28.361Z,0
2022-10-19T09:20:28.356Z,0
2022-10-19T09:21:34.389Z,0
2022-10-19T09:22:28.371Z,0
2022-10-19T09:23:28.363Z,0
2022-10-19T09:25:28.357Z,0
2022-10-19T09:26:28.381Z,0
2022-10-19T09:27:28.359Z,0
2022-10-19T09:28:33.891Z,0
2022-10-19T09:30:28.357Z,0
2022-10-19T09:33:28.664Z,0
2022-10-19T09:34:28.390Z,0
2022-10-19T09:35:28.368Z,0
2022-10-19T09:36:49.466Z,0
2022-10-19T09:37:31.447Z,0
2022-10-19T09:38:28.368Z,0
2022-10-19T09:39:29.563Z,0
2022-10-19T09:40:28.359Z,0
2022-10-19T09:41:28.371Z,0
2022-10-19T09:42:28.367Z,0
2022-10-19T09:44:28.360Z,0
2022-10-19T09:46:28.465Z,0
2022-10-19T09:47:28.365Z,0
2022-10-19T09:48:28.391Z,0
2022-10-19T09:49:28.368Z,0
2022-10-19T09:50:28.369Z,0
2022-10-19T09:52:28.370Z,0
2022-10-19T09:53:28.359Z,0
2022-10-19T09:54:28.369Z,0
2022-10-19T09:55:28.365Z,0
2022-10-19T09:57:28.399Z,0
2022-10-19T09:59:28.369Z,0
2022-10-19T10:00:28.368Z,0
2022-10-19T10:01:39.909Z,136
2022-10-19T10:02:28.432Z,109
2022-10-19T10:03:28.393Z,67
2022-10-19T10:06:28.378Z,24
2022-10-19T10:08:28.415Z,22
2022-10-19T10:09:28.378Z,24
2022-10-19T10:10:30.560Z,38
2022-10-19T10:11:28.382Z,34
2022-10-19T10:14:28.375Z,20
2022-10-19T10:16:28.369Z,13
2022-10-19T10:18:28.375Z,24
2022-10-19T10:19:28.384Z,31
2022-10-19T10:20:28.366Z,31
2022-10-19T10:21:28.370Z,24
2022-10-19T10:22:28.372Z,22
2022-10-19T10:23:28.370Z,20
2022-10-19T10:24:28.371Z,19
2022-10-19T10:26:28.443Z,12
2022-10-19T10:27:28.381Z,13
2022-10-19T10:28:28.428Z,12
2022-10-19T10:29:28.374Z,10
2022-10-19T10:31:28.405Z,10
2022-10-19T10:32:28.383Z,10
2022-10-19T10:34:37.519Z,11
2022-10-19T10:35:28.399Z,13
2022-10-19T10:37:28.437Z,13
2022-10-19T10:39:28.386Z,11
2022-10-19T10:41:28.372Z,11
2022-10-19T10:42:28.375Z,8
2022-10-19T10:43:28.374Z,8
2022-10-19T10:45:28.384Z,8
2022-10-19T10:46:28.396Z,7
2022-10-19T10:47:28.376Z,8
2022-10-19T10:49:28.377Z,8
2022-10-19T10:50:28.428Z,7
2022-10-19T10:51:28.389Z,8
2022-10-19T10:52:28.375Z,8
2022-10-19T10:53:28.375Z,8
2022-10-19T10:57:28.382Z,11
2022-10-19T11:01:28.491Z,9
2022-10-19T11:02:28.377Z,8
2022-10-19T11:03:28.391Z,9
2022-10-19T11:04:28.375Z,11
2022-10-19T11:06:28.380Z,11
2022-10-19T11:08:28.388Z,9
2022-10-19T11:10:28.433Z,8
2022-10-19T11:11:28.384Z,6
2022-10-19T11:12:31.554Z,6
2022-10-19T11:13:28.382Z,7
2022-10-19T11:16:28.373Z,5
2022-10-19T11:17:28.379Z,7
2022-10-19T11:18:28.382Z,0
2022-10-19T11:19:28.380Z,0
2022-10-19T11:21:28.375Z,0
2022-10-19T11:22:28.379Z,26
2022-10-19T11:23:28.374Z,46
2022-10-19T11:24:28.377Z,43
2022-10-19T11:26:28.377Z,38
2022-10-19T11:29:28.380Z,41
2022-10-19T11:31:29.763Z,42
2022-10-19T11:33:28.381Z,43
2022-10-19T11:34:28.385Z,46
2022-10-19T11:35:28.388Z,47
2022-10-19T11:36:28.383Z,48
2022-10-19T11:37:28.385Z,49
2022-10-19T11:38:30.219Z,50
2022-10-19T11:39:28.384Z,47
2022-10-19T11:42:28.384Z,44
2022-10-19T11:43:28.384Z,43
2022-10-19T11:44:28.385Z,42
2022-10-19T11:46:28.378Z,41
2022-10-19T11:47:28.382Z,42
2022-10-19T11:48:28.386Z,40
2022-10-19T11:51:28.381Z,0
2022-10-19T11:52:28.378Z,0
2022-10-19T11:53:28.377Z,0
2022-10-19T11:55:28.374Z,43
2022-10-19T11:56:39.139Z,41
2022-10-19T11:57:28.379Z,0
2022-10-19T11:58:33.730Z,0
2022-10-19T11:59:28.386Z,0
2022-10-19T12:01:28.419Z,44
2022-10-19T12:02:28.422Z,46
2022-10-19T12:03:28.376Z,0
2022-10-19T12:04:28.384Z,0
2022-10-19T12:05:28.380Z,0
2022-10-19T12:06:28.385Z,0
2022-10-19T12:07:28.434Z,0
2022-10-19T12:09:28.383Z,0
2022-10-19T12:12:28.384Z,0
2022-10-19T12:14:28.386Z,0
2022-10-19T12:15:28.384Z,0
2022-10-19T12:16:28.387Z,0
2022-10-19T12:17:28.388Z,0
2022-10-19T12:18:28.386Z,43
2022-10-19T12:19:28.389Z,41
2022-10-19T12:20:28.383Z,40
2022-10-19T12:22:28.385Z,0
2022-10-19T12:23:28.387Z,29
2022-10-19T12:24:28.387Z,44
2022-10-19T12:26:28.391Z,0
2022-10-19T12:27:28.383Z,0
2022-10-19T12:28:28.393Z,0
2022-10-19T12:30:28.397Z,0
2022-10-19T12:31:28.385Z,34
2022-10-19T12:32:28.414Z,0
2022-10-19T12:33:28.380Z,39
2022-10-19T12:35:29.165Z,0
2022-10-19T12:36:28.389Z,0
2022-10-19T12:37:28.401Z,0
2022-10-19T12:38:28.386Z,0
2022-10-19T12:39:28.443Z,0
2022-10-19T12:40:28.390Z,0
2022-10-19T12:41:28.396Z,0
2022-10-19T12:43:28.391Z,0
2022-10-19T12:44:28.445Z,0
2022-10-19T12:45:28.400Z,0
2022-10-19T12:47:28.389Z,0
2022-10-19T12:48:28.390Z,0
2022-10-19T12:49:28.390Z,0
2022-10-19T12:51:28.382Z,0
2022-10-19T12:52:28.383Z,0
2022-10-19T12:53:28.389Z,33
2022-10-19T12:54:28.387Z,0
2022-10-19T12:56:28.393Z,0
2022-10-19T12:57:28.393Z,0
2022-10-19T12:58:28.388Z,0
2022-10-19T13:00:28.410Z,0
2022-10-19T13:02:28.431Z,0
2022-10-19T13:03:29.712Z,33
2022-10-19T13:04:28.405Z,37
2022-10-19T13:05:28.394Z,0
2022-10-19T13:07:28.388Z,0
2022-10-19T13:08:28.482Z,0
2022-10-19T13:10:28.394Z,0
2022-10-19T13:11:28.479Z,0
2022-10-19T13:12:28.400Z,34
2022-10-19T13:13:28.447Z,36
2022-10-19T13:15:28.398Z,33
2022-10-19T13:17:33.206Z,0
2022-10-19T13:18:28.390Z,41
2022-10-19T13:19:28.394Z,39
2022-10-19T13:20:28.484Z,0
2022-10-19T13:22:28.411Z,0
2022-10-19T13:26:28.395Z,0
2022-10-19T13:27:28.401Z,35
2022-10-19T13:29:28.431Z,37
2022-10-19T13:30:28.398Z,39
2022-10-19T13:31:28.518Z,37
2022-10-19T13:34:28.439Z,33
2022-10-19T13:35:28.392Z,32
2022-10-19T13:36:28.407Z,0
2022-10-19T13:38:28.446Z,0
2022-10-19T13:39:28.397Z,28
2022-10-19T13:40:28.396Z,0
2022-10-19T13:41:28.397Z,0
2022-10-19T13:42:28.448Z,0
2022-10-19T13:43:28.396Z,0
2022-10-19T13:44:28.398Z,0
2022-10-19T13:47:28.504Z,0
2022-10-19T13:48:28.391Z,0
2022-10-19T13:49:30.378Z,0
2022-10-19T13:50:28.403Z,39
2022-10-19T13:51:28.398Z,40
2022-10-19T13:52:28.400Z,34
2022-10-19T13:54:28.397Z,0
2022-10-19T13:55:28.395Z,37
2022-10-19T13:57:28.398Z,0
2022-10-19T13:59:28.432Z,0
2022-10-19T14:00:28.401Z,0
2022-10-19T14:02:28.458Z,0
2022-10-19T14:05:28.620Z,0
2022-10-19T14:06:28.711Z,0
2022-10-19T14:08:28.468Z,0
2022-10-19T14:09:28.402Z,0
2022-10-19T14:10:32.752Z,0
2022-10-19T14:11:28.401Z,0
2022-10-19T14:12:28.451Z,0
2022-10-19T14:13:28.406Z,0
2022-10-19T14:14:28.400Z,0
2022-10-19T14:15:28.402Z,0
2022-10-19T14:16:28.400Z,0
2022-10-19T14:18:28.402Z,0
2022-10-19T14:20:28.413Z,0
2022-10-19T14:21:28.415Z,0
2022-10-19T14:22:28.404Z,0
2022-10-19T14:23:28.488Z,0
2022-10-19T14:24:28.399Z,0
2022-10-19T14:26:28.408Z,0
2022-10-19T14:27:28.404Z,0
2022-10-19T14:28:28.412Z,0
2022-10-19T14:29:28.405Z,0
2022-10-19T14:30:28.407Z,0
2022-10-19T14:31:28.404Z,0
2022-10-19T14:32:28.470Z,0
2022-10-19T14:33:28.421Z,0
2022-10-19T14:35:28.413Z,0
2022-10-19T14:36:28.430Z,0
2022-10-19T14:37:28.402Z,0
2022-10-19T14:39:28.474Z,0
2022-10-19T14:40:28.446Z,0
2022-10-19T14:41:28.461Z,0
2022-10-19T14:42:28.401Z,0
2022-10-19T14:43:28.402Z,0
2022-10-19T14:44:28.405Z,0
2022-10-19T14:45:28.408Z,0
2022-10-19T14:47:28.407Z,0
2022-10-19T14:48:28.409Z,0
2022-10-19T14:49:28.413Z,28
2022-10-19T14:50:28.456Z,26
2022-10-19T14:51:28.433Z,0
2022-10-19T14:53:28.410Z,0
2022-10-19T14:54:28.411Z,0
2022-10-19T14:56:28.407Z,0
2022-10-19T14:57:28.407Z,0
2022-10-19T14:58:28.407Z,0
2022-10-19T15:01:28.467Z,0
2022-10-19T15:02:28.411Z,0
2022-10-19T15:03:28.413Z,0
2022-10-19T15:04:28.404Z,0
2022-10-19T15:06:28.489Z,0
2022-10-19T15:08:28.427Z,0
2022-10-19T15:09:37.575Z,0
2022-10-19T15:11:28.410Z,0
2022-10-19T15:12:28.415Z,0
2022-10-19T15:13:28.413Z,0
2022-10-19T15:14:28.409Z,0
2022-10-19T15:15:28.421Z,0
2022-10-19T15:16:28.407Z,0
2022-10-19T15:19:28.411Z,0
2022-10-19T15:20:28.409Z,0
2022-10-19T15:21:30.359Z,0
2022-10-19T15:22:28.419Z,0
2022-10-19T15:23:28.456Z,0
2022-10-19T15:24:28.418Z,0
2022-10-19T15:25:28.416Z,0
2022-10-19T15:27:28.414Z,0
2022-10-19T15:28:28.417Z,0
2022-10-19T15:29:28.420Z,0
2022-10-19T15:30:28.416Z,0
2022-10-19T15:32:28.410Z,0
2022-10-19T15:33:28.418Z,0
2022-10-19T15:34:28.413Z,0
2022-10-19T15:35:28.419Z,0
2022-10-19T15:36:28.409Z,0
2022-10-19T15:37:28.430Z,0
2022-10-19T15:38:28.438Z,0
2022-10-19T15:40:28.463Z,0
2022-10-19T15:41:28.428Z,0
2022-10-19T15:43:28.410Z,0
2022-10-19T15:44:28.413Z,0
2022-10-19T15:45:28.488Z,0
2022-10-19T15:46:28.516Z,0
2022-10-19T15:47:28.418Z,0
2022-10-19T15:51:28.427Z,0
2022-10-19T15:52:28.410Z,0
2022-10-19T15:53:28.417Z,0
2022-10-19T15:55:28.424Z,0
2022-10-19T15:56:28.417Z,0
2022-10-19T15:57:28.473Z,0
2022-10-19T15:58:28.422Z,51
2022-10-19T15:59:29.639Z,49
2022-10-19T16:00:28.427Z,0
2022-10-19T16:01:28.442Z,0
2022-10-19T16:03:28.417Z,0
2022-10-19T16:04:28.421Z,0
2022-10-19T16:05:28.417Z,0
2022-10-19T16:06:28.413Z,0
2022-10-19T16:07:28.426Z,0
2022-10-19T16:08:28.487Z,0
2022-10-19T16:09:28.447Z,0
2022-10-19T16:11:28.413Z,0
2022-10-19T16:12:28.428Z,0
2022-10-19T16:14:28.476Z,0
2022-10-19T16:15:28.417Z,0
2022-10-19T16:16:28.427Z,0
2022-10-19T16:17:28.423Z,0
2022-10-19T16:18:28.429Z,0
2022-10-19T16:19:28.479Z,0
2022-10-19T16:20:28.420Z,0
2022-10-19T16:22:28.429Z,0
2022-10-19T16:24:28.414Z,0
2022-10-19T16:25:28.417Z,0
2022-10-19T16:26:28.426Z,0
2022-10-19T16:27:28.416Z,0
2022-10-19T16:28:28.427Z,0
2022-10-19T16:29:29.028Z,0
2022-10-19T16:30:28.429Z,0
2022-10-19T16:31:28.423Z,0
2022-10-19T16:32:28.529Z,0
2022-10-19T16:33:28.428Z,0
2022-10-19T16:36:28.463Z,0
2022-10-19T16:37:28.428Z,13
2022-10-19T16:38:28.423Z,10
2022-10-19T16:39:28.423Z,12
2022-10-19T16:41:28.503Z,9
2022-10-19T16:43:28.436Z,0
2022-10-19T16:44:28.428Z,0
2022-10-19T16:46:28.428Z,0
2022-10-19T16:47:28.436Z,9
2022-10-19T16:48:28.423Z,0
2022-10-19T16:49:28.429Z,7
2022-10-19T16:50:28.431Z,7
2022-10-19T16:51:28.427Z,6
2022-10-19T16:53:28.424Z,0
2022-10-19T16:54:28.433Z,0
2022-10-19T16:56:28.441Z,7
2022-10-19T16:57:28.434Z,6
2022-10-19T16:58:28.428Z,6
2022-10-19T16:59:28.429Z,6
2022-10-19T17:00:28.429Z,6
2022-10-19T17:01:28.496Z,6
2022-10-19T17:02:28.433Z,5
2022-10-19T17:04:28.437Z,6
2022-10-19T17:07:28.424Z,5
2022-10-19T17:08:36.649Z,5
2022-10-19T17:09:43.993Z,5
2022-10-19T17:10:28.491Z,5
2022-10-19T17:11:28.523Z,5
2022-10-19T17:12:28.426Z,5
2022-10-19T17:13:28.456Z,5
2022-10-19T17:15:42.581Z,3
2022-10-19T17:16:28.433Z,4
2022-10-19T17:17:28.424Z,0
2022-10-19T17:18:28.439Z,4
2022-10-19T17:19:28.451Z,0
2022-10-19T17:20:28.439Z,4
2022-10-19T17:21:28.427Z,0
2022-10-19T17:23:28.438Z,5
2022-10-19T17:24:28.438Z,4
2022-10-19T17:25:28.433Z,3
2022-10-19T17:26:28.439Z,3
2022-10-19T17:29:28.438Z,3
2022-10-19T17:31:28.450Z,3
2022-10-19T17:32:28.431Z,3
2022-10-19T17:33:28.439Z,3
2022-10-19T17:34:28.435Z,0
2022-10-19T17:36:28.563Z,0
2022-10-19T17:37:28.436Z,4
2022-10-19T17:38:28.430Z,0
2022-10-19T17:39:30.036Z,4
2022-10-19T17:40:28.443Z,5
2022-10-19T17:44:28.433Z,0
2022-10-19T17:45:28.450Z,0
2022-10-19T17:47:28.436Z,0
2022-10-19T17:49:28.432Z,4
2022-10-19T17:50:28.431Z,3
2022-10-19T17:51:28.427Z,4
2022-10-19T17:52:28.429Z,0
2022-10-19T17:53:28.428Z,0
2022-10-19T17:54:28.553Z,4
2022-10-19T17:55:28.435Z,0
2022-10-19T17:58:28.432Z,0
2022-10-19T17:59:34.817Z,0
2022-10-19T18:00:28.443Z,0
2022-10-19T18:02:28.486Z,0
2022-10-19T18:03:28.476Z,0
2022-10-19T18:05:28.431Z,0
2022-10-19T18:06:28.432Z,0
2022-10-19T18:08:28.461Z,0
2022-10-19T18:10:28.436Z,0
2022-10-19T18:12:28.433Z,0
2022-10-19T18:13:28.494Z,0
2022-10-19T18:14:28.436Z,0
2022-10-19T18:15:28.478Z,0
2022-10-19T18:18:28.435Z,0
2022-10-19T18:19:28.434Z,0
2022-10-19T18:20:28.427Z,0
2022-10-19T18:21:28.432Z,0
2022-10-19T18:22:28.436Z,0
2022-10-19T18:23:28.446Z,0
2022-10-19T18:24:28.466Z,0
2022-10-19T18:26:28.467Z,0
2022-10-19T18:27:28.438Z,0
2022-10-19T18:28:28.442Z,0
2022-10-19T18:32:28.456Z,0
2022-10-19T18:33:30.292Z,0
2022-10-19T18:37:28.493Z,0
2022-10-19T18:42:28.501Z,0
2022-10-19T18:43:28.436Z,0
2022-10-19T18:44:30.415Z,0
2022-10-19T18:45:28.438Z,0
2022-10-19T18:47:28.442Z,0
2022-10-19T18:48:28.439Z,0
2022-10-19T18:49:28.441Z,0
2022-10-19T18:50:28.443Z,3
2022-10-19T18:52:28.431Z,0
2022-10-19T18:54:29.252Z,0
2022-10-19T18:55:28.443Z,3
2022-10-19T18:56:28.538Z,3
2022-10-19T18:57:31.742Z,4
2022-10-19T19:00:28.440Z,0
2022-10-19T19:01:28.509Z,0
2022-10-19T19:02:42.456Z,0
2022-10-19T19:03:28.438Z,0
2022-10-19T19:04:28.443Z,0
2022-10-19T19:05:28.434Z,0
2022-10-19T19:06:28.446Z,0
2022-10-19T19:08:28.546Z,0
2022-10-19T19:11:30.596Z,0
2022-10-19T19:12:28.449Z,0
2022-10-19T19:16:28.446Z,0
2022-10-19T19:17:28.437Z,0
2022-10-19T19:19:28.439Z,0
2022-10-19T19:20:28.451Z,0
2022-10-19T19:21:28.489Z,3
2022-10-19T19:22:28.440Z,0
2022-10-19T19:25:28.455Z,0
2022-10-19T19:26:28.477Z,3
2022-10-19T19:28:28.438Z,0
2022-10-19T19:29:28.463Z,0
2022-10-19T19:30:28.451Z,0
2022-10-19T19:32:28.443Z,0
2022-10-19T19:33:28.444Z,2
2022-10-19T19:34:28.442Z,0